Aquila — WDF8873 — position and weather

sailwx.info

Track history (hours):
 
Tides and Currents Weather Stations Pressure Air Temp Water Temp Dewpoint Dewpoint Depression Visibility Wind Speed Wind Dir Waves Ship Positions

Aquila

Owner: Inter Island Yachts Inc., Zephyr Cove, NV. More information available from US FCC via Universal Licensing System and Coast Guard Vessel Documentation Center.

Last reported at 2018-Jun-25 15:23 UTC. Time now 2018-Jun-25 15:43 UTC.
Position N 33°43' W 118°17'.

Length 20 m.

Type: Passenger vessel. MMSI: 366554000.

Date/timePositionNaut miles runAvg speedWind from/ knotsBaromVisibWave heightAir tempDewpointWater temp
2018-Jun-25 15:23N 33°43' W 118°17'0 0.0
2018-Jun-25 14:11N 33°43' W 118°17'0 0.0
2018-Jun-25 02:26N 33°43' W 118°17'0 0.0
2018-Jun-25 01:50N 33°43' W 118°17'0 0.0
2018-Jun-25 00:54N 33°43' W 118°17'0 0.0
2018-Jun-25 00:25N 33°43' W 118°17'0 0.0
2018-Jun-24 23:22N 33°43' W 118°17'0 0.0
2018-Jun-24 21:31N 33°43' W 118°17'1 2.1
2018-Jun-24 21:14N 33°43' W 118°17'2 6.3
2018-Jun-24 21:00N 33°42' W 118°15'5 0.2
2018-Jun-23 18:34N 33°37' W 118°16'3 8.1
2018-Jun-23 18:14N 33°40' W 118°15'2 8.0
2018-Jun-23 18:00N 33°42' W 118°15'2 0.5
2018-Jun-23 13:08N 33°43' W 118°17'0 0.0
2018-Jun-23 12:47N 33°43' W 118°17'0 0.0
2018-Jun-23 10:58N 33°43' W 118°17'0 0.0
2018-Jun-23 09:54N 33°43' W 118°17'0 0.0
2018-Jun-23 08:36N 33°43' W 118°17'0 0.0
2018-Jun-23 08:24N 33°43' W 118°17'0 0.0
2018-Jun-23 06:27N 33°43' W 118°17'0 0.0
2018-Jun-23 05:58N 33°43' W 118°17'0 0.0
2018-Jun-23 05:16N 33°43' W 118°17'0 0.0
2018-Jun-23 03:51N 33°43' W 118°17'0 0.0
2018-Jun-23 03:11N 33°43' W 118°17'0 0.0
2018-Jun-23 02:16N 33°43' W 118°17'0 0.0
2018-Jun-22 20:36N 33°43' W 118°17'0 0.2
2018-Jun-22 20:30N 33°43' W 118°17'0 0.8
2018-Jun-22 19:56N 33°44' W 118°16'0 0.0
2018-Jun-22 19:29N 33°44' W 118°16'0 0.6
2018-Jun-22 18:46N 33°43' W 118°17'0 0.0
2018-Jun-22 18:15N 33°43' W 118°17'0 0.0
2018-Jun-22 17:55N 33°43' W 118°17'0 0.0
2018-Jun-22 17:11N 33°43' W 118°17'0 0.0
2018-Jun-22 16:58N 33°43' W 118°17'0 0.0
2018-Jun-22 16:29N 33°43' W 118°17'0 0.0
2018-Jun-22 15:58N 33°43' W 118°17'0 0.0
2018-Jun-22 15:25N 33°43' W 118°17'0 0.0
2018-Jun-22 03:18N 33°43' W 118°17'0 0.0
2018-Jun-22 01:42N 33°43' W 118°17'0 0.0
2018-Jun-22 01:24N 33°43' W 118°17'0 0.0
2018-Jun-22 00:18N 33°43' W 118°17'0 0.0
2018-Jun-21 22:32N 33°43' W 118°17'0 0.0
2018-Jun-21 20:53N 33°43' W 118°17'0 0.0
2018-Jun-21 20:13N 33°43' W 118°17'0 0.0
2018-Jun-21 19:58N 33°43' W 118°17'0 0.0
2018-Jun-21 19:14N 33°43' W 118°17'0 0.0
2018-Jun-21 18:59N 33°43' W 118°17'0 0.0
2018-Jun-21 18:26N 33°43' W 118°17'0 0.0
2018-Jun-21 17:42N 33°43' W 118°17'0 0.0
2018-Jun-21 15:08N 33°43' W 118°17'0 0.0
2018-Jun-21 14:56N 33°43' W 118°17'0 0.0
2018-Jun-21 14:15N 33°43' W 118°17'0 0.0
2018-Jun-21 14:00N 33°43' W 118°17'0 0.0
2018-Jun-21 11:57N 33°43' W 118°17'0 0.0
2018-Jun-21 10:44N 33°43' W 118°17'0 0.0
2018-Jun-21 10:21N 33°43' W 118°17'0 0.0
2018-Jun-21 06:41N 33°43' W 118°17'0 0.0
2018-Jun-21 05:43N 33°43' W 118°17'0 0.0
2018-Jun-21 05:24N 33°43' W 118°17'0 0.0
2018-Jun-21 03:08N 33°43' W 118°17'0 0.0
2018-Jun-21 02:58N 33°43' W 118°17'0 0.0
2018-Jun-20 23:48N 33°43' W 118°17'0 0.0
2018-Jun-20 23:28N 33°43' W 118°17'0 0.0
2018-Jun-20 22:58N 33°43' W 118°17'0 0.0
2018-Jun-20 22:22N 33°43' W 118°17'0 0.0
2018-Jun-20 21:33N 33°43' W 118°17'0 0.0
2018-Jun-20 21:24N 33°43' W 118°17'0 0.0
2018-Jun-20 20:57N 33°43' W 118°17'0 0.0
2018-Jun-20 20:29N 33°43' W 118°17'0 0.0
2018-Jun-20 19:51N 33°43' W 118°17'0 0.0
2018-Jun-20 19:19N 33°43' W 118°17'0 0.0
2018-Jun-20 18:58N 33°43' W 118°17'0 0.0
2018-Jun-20 18:12N 33°43' W 118°17'0 0.0
2018-Jun-20 17:53N 33°43' W 118°17'0 0.0
2018-Jun-20 17:09N 33°43' W 118°17'0 0.0
2018-Jun-20 16:57N 33°43' W 118°17'0 0.0
2018-Jun-20 14:36N 33°43' W 118°17'0 0.0
2018-Jun-20 14:24N 33°43' W 118°17'0 0.0
2018-Jun-20 11:47N 33°43' W 118°17'0 0.0
2018-Jun-20 11:20N 33°43' W 118°17'0 0.0
2018-Jun-20 10:53N 33°43' W 118°17'0 0.0
2018-Jun-20 09:04N 33°43' W 118°17'0 0.0
2018-Jun-20 08:52N 33°43' W 118°17'0 0.0
2018-Jun-19 23:26N 33°43' W 118°17'0 0.0
2018-Jun-19 22:35N 33°43' W 118°17'0 0.0
2018-Jun-19 22:29N 33°43' W 118°17'0 0.0
2018-Jun-19 21:46N 33°43' W 118°17'0 0.0
2018-Jun-19 21:03N 33°43' W 118°17'0 0.0
2018-Jun-19 20:07N 33°43' W 118°17'0 0.0
2018-Jun-19 19:41N 33°43' W 118°17'0 0.0
2018-Jun-19 19:16N 33°43' W 118°17'0 0.0
2018-Jun-19 17:43N 33°43' W 118°17'0 0.0
2018-Jun-19 16:33N 33°43' W 118°17'0 0.0
2018-Jun-19 16:15N 33°43' W 118°17'0 0.0
2018-Jun-19 15:50N 33°43' W 118°17'0 0.0
2018-Jun-19 15:29N 33°43' W 118°17'0 0.0
2018-Jun-19 14:34N 33°43' W 118°17'0 0.0
2018-Jun-19 14:28N 33°43' W 118°17'0 0.0
2018-Jun-19 13:59N 33°43' W 118°17'0 0.0
2018-Jun-19 13:24N 33°43' W 118°17'0 0.0
2018-Jun-19 12:59N 33°43' W 118°17'0 0.0
2018-Jun-19 12:28N 33°43' W 118°17'0 0.0
2018-Jun-19 11:21N 33°43' W 118°17'0 0.0
2018-Jun-19 10:20N 33°43' W 118°17'0 0.0
2018-Jun-19 09:23N 33°43' W 118°17'0 0.0
2018-Jun-19 07:46N 33°43' W 118°17'0 0.0
2018-Jun-19 03:35N 33°43' W 118°17'0 0.0
2018-Jun-19 03:17N 33°43' W 118°17'0 0.0
2018-Jun-19 02:56N 33°43' W 118°17'0 0.0
2018-Jun-19 02:18N 33°43' W 118°17'0 0.0
2018-Jun-19 01:49N 33°43' W 118°17'0 0.0
2018-Jun-19 00:58N 33°43' W 118°17'0 0.0
2018-Jun-19 00:09N 33°43' W 118°17'0 0.0
2018-Jun-18 23:57N 33°43' W 118°17'0 0.0
2018-Jun-18 23:25N 33°43' W 118°17'0 0.0
2018-Jun-18 22:59N 33°43' W 118°17'0 0.0
2018-Jun-18 22:15N 33°43' W 118°17'0 0.0
2018-Jun-18 21:54N 33°43' W 118°17'0 0.0
2018-Jun-18 21:27N 33°43' W 118°17'0 0.0
2018-Jun-18 20:55N 33°43' W 118°17'0 0.0
2018-Jun-18 20:26N 33°43' W 118°17'0 0.0
2018-Jun-18 19:56N 33°43' W 118°17'0 0.0
2018-Jun-18 18:25N 33°43' W 118°17'0 0.0
2018-Jun-18 17:57N 33°43' W 118°17'0 0.0
2018-Jun-18 15:06N 33°43' W 118°17'0 0.0
2018-Jun-18 14:55N 33°43' W 118°17'0 0.0
2018-Jun-18 14:30N 33°43' W 118°17'0 0.0
2018-Jun-18 13:55N 33°43' W 118°17'0 0.0
2018-Jun-18 08:37N 33°43' W 118°17'0 0.0
2018-Jun-18 08:25N 33°43' W 118°17'0 0.0
2018-Jun-18 07:54N 33°43' W 118°17'0 0.0
2018-Jun-18 03:04N 33°43' W 118°17'0 0.0
2018-Jun-18 02:50N 33°43' W 118°17'0 0.0
2018-Jun-18 02:19N 33°43' W 118°17'0 0.0
2018-Jun-18 01:54N 33°43' W 118°17'0 0.0
2018-Jun-18 01:04N 33°43' W 118°17'0 0.0
2018-Jun-18 00:54N 33°43' W 118°17'0 0.0
2018-Jun-18 00:30N 33°43' W 118°17'0 0.0
2018-Jun-17 23:56N 33°43' W 118°17'0 0.0
2018-Jun-17 23:27N 33°43' W 118°17'0 0.0
2018-Jun-17 22:57N 33°43' W 118°17'0 0.0
2018-Jun-17 22:28N 33°43' W 118°17'0 0.0
2018-Jun-17 21:59N 33°43' W 118°17'0 0.0
2018-Jun-17 20:19N 33°43' W 118°17'0 0.0
2018-Jun-17 19:55N 33°43' W 118°17'0 0.0
2018-Jun-17 17:40N 33°43' W 118°17'0 0.0
2018-Jun-17 16:31N 33°43' W 118°17'0 0.0
2018-Jun-17 16:25N 33°43' W 118°17'0 0.0
2018-Jun-17 15:57N 33°43' W 118°17'0 0.0
2018-Jun-17 15:29N 33°43' W 118°17'0 0.0
2018-Jun-17 14:47N 33°43' W 118°17'0 0.0
2018-Jun-17 14:29N 33°43' W 118°17'0 0.0
2018-Jun-17 10:17N 33°43' W 118°17'0 0.0
2018-Jun-17 09:47N 33°43' W 118°17'0 0.0
2018-Jun-17 06:18N 33°43' W 118°17'0 0.0
2018-Jun-17 03:54N 33°43' W 118°17'0 0.0
2018-Jun-17 02:45N 33°43' W 118°17'0 0.0
2018-Jun-17 02:30N 33°43' W 118°17'0 0.0
2018-Jun-17 00:28N 33°43' W 118°17'0 0.0
2018-Jun-17 00:00N 33°43' W 118°17'0 0.0
2018-Jun-16 23:25N 33°43' W 118°17'0 0.0
2018-Jun-16 22:59N 33°43' W 118°17'0 0.0
2018-Jun-16 22:24N 33°43' W 118°17'0 0.0
2018-Jun-16 21:54N 33°43' W 118°17'0 0.0
2018-Jun-16 18:52N 33°43' W 118°17'0 0.0
2018-Jun-16 18:29N 33°43' W 118°17'0 0.0
2018-Jun-16 17:46N 33°43' W 118°17'0 0.0
2018-Jun-16 17:27N 33°43' W 118°17'0 0.0
2018-Jun-16 15:48N 33°43' W 118°17'0 0.0
2018-Jun-16 15:29N 33°43' W 118°17'0 0.0
2018-Jun-16 13:55N 33°43' W 118°17'0 0.0
2018-Jun-16 13:15N 33°43' W 118°17'0 0.0
2018-Jun-16 11:03N 33°43' W 118°17'0 0.0
2018-Jun-16 07:22N 33°43' W 118°17'0 0.0
2018-Jun-16 06:49N 33°43' W 118°17'0 0.0
2018-Jun-16 02:46N 33°43' W 118°17'0 0.0
2018-Jun-16 02:28N 33°43' W 118°17'0 0.0
2018-Jun-16 01:38N 33°43' W 118°17'0 0.0
2018-Jun-16 01:15N 33°43' W 118°17'0 0.0
2018-Jun-15 18:42N 33°43' W 118°17'  
Track history (hours):
 
Tides and Currents Weather Stations Pressure Air Temp Water Temp Dewpoint Dewpoint Depression Visibility Wind Speed Wind Dir Waves Ship Positions

Aquila

Owner: Inter Island Yachts Inc., Zephyr Cove, NV. More information available from US FCC via Universal Licensing System and Coast Guard Vessel Documentation Center.

Last reported at 2018-Jun-25 15:23 UTC. Time now 2018-Jun-25 15:43 UTC.
Position N 33°43' W 118°17'.

Length 20 m.

Type: Passenger vessel. MMSI: 366554000.

Date/timePositionNaut miles runAvg speedWind from/ knotsBaromVisibWave heightAir tempDewpointWater temp
2018-Jun-25 15:23N 33°43' W 118°17'0 0.0
2018-Jun-25 14:11N 33°43' W 118°17'0 0.0
2018-Jun-25 02:26N 33°43' W 118°17'0 0.0
2018-Jun-25 01:50N 33°43' W 118°17'0 0.0
2018-Jun-25 00:54N 33°43' W 118°17'0 0.0
2018-Jun-25 00:25N 33°43' W 118°17'0 0.0
2018-Jun-24 23:22N 33°43' W 118°17'0 0.0
2018-Jun-24 21:31N 33°43' W 118°17'1 2.1
2018-Jun-24 21:14N 33°43' W 118°17'2 6.3
2018-Jun-24 21:00N 33°42' W 118°15'5 0.2
2018-Jun-23 18:34N 33°37' W 118°16'3 8.1
2018-Jun-23 18:14N 33°40' W 118°15'2 8.0
2018-Jun-23 18:00N 33°42' W 118°15'2 0.5
2018-Jun-23 13:08N 33°43' W 118°17'0 0.0
2018-Jun-23 12:47N 33°43' W 118°17'0 0.0
2018-Jun-23 10:58N 33°43' W 118°17'0 0.0
2018-Jun-23 09:54N 33°43' W 118°17'0 0.0
2018-Jun-23 08:36N 33°43' W 118°17'0 0.0
2018-Jun-23 08:24N 33°43' W 118°17'0 0.0
2018-Jun-23 06:27N 33°43' W 118°17'0 0.0
2018-Jun-23 05:58N 33°43' W 118°17'0 0.0
2018-Jun-23 05:16N 33°43' W 118°17'0 0.0
2018-Jun-23 03:51N 33°43' W 118°17'0 0.0
2018-Jun-23 03:11N 33°43' W 118°17'0 0.0
2018-Jun-23 02:16N 33°43' W 118°17'0 0.0
2018-Jun-22 20:36N 33°43' W 118°17'0 0.2
2018-Jun-22 20:30N 33°43' W 118°17'0 0.8
2018-Jun-22 19:56N 33°44' W 118°16'0 0.0
2018-Jun-22 19:29N 33°44' W 118°16'0 0.6
2018-Jun-22 18:46N 33°43' W 118°17'0 0.0
2018-Jun-22 18:15N 33°43' W 118°17'0 0.0
2018-Jun-22 17:55N 33°43' W 118°17'0 0.0
2018-Jun-22 17:11N 33°43' W 118°17'0 0.0
2018-Jun-22 16:58N 33°43' W 118°17'0 0.0
2018-Jun-22 16:29N 33°43' W 118°17'0 0.0
2018-Jun-22 15:58N 33°43' W 118°17'0 0.0
2018-Jun-22 15:25N 33°43' W 118°17'0 0.0
2018-Jun-22 03:18N 33°43' W 118°17'0 0.0
2018-Jun-22 01:42N 33°43' W 118°17'0 0.0
2018-Jun-22 01:24N 33°43' W 118°17'0 0.0
2018-Jun-22 00:18N 33°43' W 118°17'0 0.0
2018-Jun-21 22:32N 33°43' W 118°17'0 0.0
2018-Jun-21 20:53N 33°43' W 118°17'0 0.0
2018-Jun-21 20:13N 33°43' W 118°17'0 0.0
2018-Jun-21 19:58N 33°43' W 118°17'0 0.0
2018-Jun-21 19:14N 33°43' W 118°17'0 0.0
2018-Jun-21 18:59N 33°43' W 118°17'0 0.0
2018-Jun-21 18:26N 33°43' W 118°17'0 0.0
2018-Jun-21 17:42N 33°43' W 118°17'0 0.0
2018-Jun-21 15:08N 33°43' W 118°17'0 0.0
2018-Jun-21 14:56N 33°43' W 118°17'0 0.0
2018-Jun-21 14:15N 33°43' W 118°17'0 0.0
2018-Jun-21 14:00N 33°43' W 118°17'0 0.0
2018-Jun-21 11:57N 33°43' W 118°17'0 0.0
2018-Jun-21 10:44N 33°43' W 118°17'0 0.0
2018-Jun-21 10:21N 33°43' W 118°17'0 0.0
2018-Jun-21 06:41N 33°43' W 118°17'0 0.0
2018-Jun-21 05:43N 33°43' W 118°17'0 0.0
2018-Jun-21 05:24N 33°43' W 118°17'0 0.0
2018-Jun-21 03:08N 33°43' W 118°17'0 0.0
2018-Jun-21 02:58N 33°43' W 118°17'0 0.0
2018-Jun-20 23:48N 33°43' W 118°17'0 0.0
2018-Jun-20 23:28N 33°43' W 118°17'0 0.0
2018-Jun-20 22:58N 33°43' W 118°17'0 0.0
2018-Jun-20 22:22N 33°43' W 118°17'0 0.0
2018-Jun-20 21:33N 33°43' W 118°17'0 0.0
2018-Jun-20 21:24N 33°43' W 118°17'0 0.0
2018-Jun-20 20:57N 33°43' W 118°17'0 0.0
2018-Jun-20 20:29N 33°43' W 118°17'0 0.0
2018-Jun-20 19:51N 33°43' W 118°17'0 0.0
2018-Jun-20 19:19N 33°43' W 118°17'0 0.0
2018-Jun-20 18:58N 33°43' W 118°17'0 0.0
2018-Jun-20 18:12N 33°43' W 118°17'0 0.0
2018-Jun-20 17:53N 33°43' W 118°17'0 0.0
2018-Jun-20 17:09N 33°43' W 118°17'0 0.0
2018-Jun-20 16:57N 33°43' W 118°17'0 0.0
2018-Jun-20 14:36N 33°43' W 118°17'0 0.0
2018-Jun-20 14:24N 33°43' W 118°17'0 0.0
2018-Jun-20 11:47N 33°43' W 118°17'0 0.0
2018-Jun-20 11:20N 33°43' W 118°17'0 0.0
2018-Jun-20 10:53N 33°43' W 118°17'0 0.0
2018-Jun-20 09:04N 33°43' W 118°17'0 0.0
2018-Jun-20 08:52N 33°43' W 118°17'0 0.0
2018-Jun-19 23:26N 33°43' W 118°17'0 0.0
2018-Jun-19 22:35N 33°43' W 118°17'0 0.0
2018-Jun-19 22:29N 33°43' W 118°17'0 0.0
2018-Jun-19 21:46N 33°43' W 118°17'0 0.0
2018-Jun-19 21:03N 33°43' W 118°17'0 0.0
2018-Jun-19 20:07N 33°43' W 118°17'0 0.0
2018-Jun-19 19:41N 33°43' W 118°17'0 0.0
2018-Jun-19 19:16N 33°43' W 118°17'0 0.0
2018-Jun-19 17:43N 33°43' W 118°17'0 0.0
2018-Jun-19 16:33N 33°43' W 118°17'0 0.0
2018-Jun-19 16:15N 33°43' W 118°17'0 0.0
2018-Jun-19 15:50N 33°43' W 118°17'0 0.0
2018-Jun-19 15:29N 33°43' W 118°17'0 0.0
2018-Jun-19 14:34N 33°43' W 118°17'0 0.0
2018-Jun-19 14:28N 33°43' W 118°17'0 0.0
2018-Jun-19 13:59N 33°43' W 118°17'0 0.0
2018-Jun-19 13:24N 33°43' W 118°17'0 0.0
2018-Jun-19 12:59N 33°43' W 118°17'0 0.0
2018-Jun-19 12:28N 33°43' W 118°17'0 0.0
2018-Jun-19 11:21N 33°43' W 118°17'0 0.0
2018-Jun-19 10:20N 33°43' W 118°17'0 0.0
2018-Jun-19 09:23N 33°43' W 118°17'0 0.0
2018-Jun-19 07:46N 33°43' W 118°17'0 0.0
2018-Jun-19 03:35N 33°43' W 118°17'0 0.0
2018-Jun-19 03:17N 33°43' W 118°17'0 0.0
2018-Jun-19 02:56N 33°43' W 118°17'0 0.0
2018-Jun-19 02:18N 33°43' W 118°17'0 0.0
2018-Jun-19 01:49N 33°43' W 118°17'0 0.0
2018-Jun-19 00:58N 33°43' W 118°17'0 0.0
2018-Jun-19 00:09N 33°43' W 118°17'0 0.0
2018-Jun-18 23:57N 33°43' W 118°17'0 0.0
2018-Jun-18 23:25N 33°43' W 118°17'0 0.0
2018-Jun-18 22:59N 33°43' W 118°17'0 0.0
2018-Jun-18 22:15N 33°43' W 118°17'0 0.0
2018-Jun-18 21:54N 33°43' W 118°17'0 0.0
2018-Jun-18 21:27N 33°43' W 118°17'0 0.0
2018-Jun-18 20:55N 33°43' W 118°17'0 0.0
2018-Jun-18 20:26N 33°43' W 118°17'0 0.0
2018-Jun-18 19:56N 33°43' W 118°17'0 0.0
2018-Jun-18 18:25N 33°43' W 118°17'0 0.0
2018-Jun-18 17:57N 33°43' W 118°17'0 0.0
2018-Jun-18 15:06N 33°43' W 118°17'0 0.0
2018-Jun-18 14:55N 33°43' W 118°17'0 0.0
2018-Jun-18 14:30N 33°43' W 118°17'0 0.0
2018-Jun-18 13:55N 33°43' W 118°17'0 0.0
2018-Jun-18 08:37N 33°43' W 118°17'0 0.0
2018-Jun-18 08:25N 33°43' W 118°17'0 0.0
2018-Jun-18 07:54N 33°43' W 118°17'0 0.0
2018-Jun-18 03:04N 33°43' W 118°17'0 0.0
2018-Jun-18 02:50N 33°43' W 118°17'0 0.0
2018-Jun-18 02:19N 33°43' W 118°17'0 0.0
2018-Jun-18 01:54N 33°43' W 118°17'0 0.0
2018-Jun-18 01:04N 33°43' W 118°17'0 0.0
2018-Jun-18 00:54N 33°43' W 118°17'0 0.0
2018-Jun-18 00:30N 33°43' W 118°17'0 0.0
2018-Jun-17 23:56N 33°43' W 118°17'0 0.0
2018-Jun-17 23:27N 33°43' W 118°17'0 0.0
2018-Jun-17 22:57N 33°43' W 118°17'0 0.0
2018-Jun-17 22:28N 33°43' W 118°17'0 0.0
2018-Jun-17 21:59N 33°43' W 118°17'0 0.0
2018-Jun-17 20:19N 33°43' W 118°17'0 0.0
2018-Jun-17 19:55N 33°43' W 118°17'0 0.0
2018-Jun-17 17:40N 33°43' W 118°17'0 0.0
2018-Jun-17 16:31N 33°43' W 118°17'0 0.0
2018-Jun-17 16:25N 33°43' W 118°17'0 0.0
2018-Jun-17 15:57N 33°43' W 118°17'0 0.0
2018-Jun-17 15:29N 33°43' W 118°17'0 0.0
2018-Jun-17 14:47N 33°43' W 118°17'0 0.0
2018-Jun-17 14:29N 33°43' W 118°17'0 0.0
2018-Jun-17 10:17N 33°43' W 118°17'0 0.0
2018-Jun-17 09:47N 33°43' W 118°17'0 0.0
2018-Jun-17 06:18N 33°43' W 118°17'0 0.0
2018-Jun-17 03:54N 33°43' W 118°17'0 0.0
2018-Jun-17 02:45N 33°43' W 118°17'0 0.0
2018-Jun-17 02:30N 33°43' W 118°17'0 0.0
2018-Jun-17 00:28N 33°43' W 118°17'0 0.0
2018-Jun-17 00:00N 33°43' W 118°17'0 0.0
2018-Jun-16 23:25N 33°43' W 118°17'0 0.0
2018-Jun-16 22:59N 33°43' W 118°17'0 0.0
2018-Jun-16 22:24N 33°43' W 118°17'0 0.0
2018-Jun-16 21:54N 33°43' W 118°17'0 0.0
2018-Jun-16 18:52N 33°43' W 118°17'0 0.0
2018-Jun-16 18:29N 33°43' W 118°17'0 0.0
2018-Jun-16 17:46N 33°43' W 118°17'0 0.0
2018-Jun-16 17:27N 33°43' W 118°17'0 0.0
2018-Jun-16 15:48N 33°43' W 118°17'0 0.0
2018-Jun-16 15:29N 33°43' W 118°17'0 0.0
2018-Jun-16 13:55N 33°43' W 118°17'0 0.0
2018-Jun-16 13:15N 33°43' W 118°17'0 0.0
2018-Jun-16 11:03N 33°43' W 118°17'0 0.0
2018-Jun-16 07:22N 33°43' W 118°17'0 0.0
2018-Jun-16 06:49N 33°43' W 118°17'0 0.0
2018-Jun-16 02:46N 33°43' W 118°17'0 0.0
2018-Jun-16 02:28N 33°43' W 118°17'0 0.0
2018-Jun-16 01:38N 33°43' W 118°17'0 0.0
2018-Jun-16 01:15N 33°43' W 118°17'0 0.0
2018-Jun-15 18:42N 33°43' W 118°17'  

Dump ship's entire track history